Time;durP1;ratioP1;P1;durP2;ratioP2;P2;SDS_P1;SDS_P2;PMS_P1;PMS_P2;Temp;Humidity;BMP_temperature;BMP_pressure;BME280_temperature;BME280_humidity;BME280_pressure;Samples;Min_cycle;Max_cycle;Signal;HPM_P1;HPM_P2
2023/01/29 00:02:24;;;;;;;4.57;2.10;;;2.50;98.00;;;;;;5054607;28;20457;-67
2023/01/29 00:04:52;;;;;;;5.37;2.70;;;2.20;98.00;;;;;;5055298;28;20457;-67
2023/01/29 00:07:19;;;;;;;4.80;2.30;;;2.10;98.00;;;;;;5055201;28;20497;-67
2023/01/29 00:09:47;;;;;;;3.73;2.07;;;2.00;98.00;;;;;;5055030;28;20465;-67
2023/01/29 00:12:14;;;;;;;1.90;1.80;;;1.90;98.00;;;;;;5054113;28;20968;-67
2023/01/29 00:14:41;;;;;;;2.93;2.17;;;1.90;98.00;;;;;;5053879;28;20468;-67
2023/01/29 00:17:10;;;;;;;3.80;2.60;;;1.90;98.00;;;;;;5054967;28;20457;-67
2023/01/29 00:19:37;;;;;;;5.33;2.77;;;1.80;98.00;;;;;;5055068;28;20643;-67
2023/01/29 00:22:05;;;;;;;8.43;2.83;;;1.80;98.00;;;;;;5054973;28;20453;-67
2023/01/29 00:24:32;;;;;;;2.40;1.83;;;1.80;98.00;;;;;;5054811;28;20477;-67
2023/01/29 00:27:00;;;;;;;7.37;2.93;;;1.70;98.00;;;;;;5054799;28;20794;-67
2023/01/29 00:29:27;;;;;;;3.43;2.30;;;1.70;98.00;;;;;;5053542;28;20454;-67
2023/01/29 00:31:54;;;;;;;2.67;1.93;;;1.70;98.00;;;;;;5053405;28;20511;-67
2023/01/29 00:34:22;;;;;;;4.87;3.00;;;1.70;98.00;;;;;;5053340;28;20453;-67
2023/01/29 00:36:49;;;;;;;2.23;2.03;;;1.60;98.00;;;;;;5054313;28;20561;-67
2023/01/29 00:39:24;;;;;;;4.43;2.37;;;1.60;98.00;;;;;;5054289;28;20457;-67
2023/01/29 00:47:40;;;;;;;3.57;1.93;;;1.80;98.00;;;;;;5053196;28;20460;-67
2023/01/29 00:50:10;;;;;;;2.90;1.60;;;1.80;98.00;;;;;;5052739;28;20453;-67
2023/01/29 00:52:39;;;;;;;1.80;1.73;;;1.70;98.00;;;;;;5053712;28;20461;-66
2023/01/29 00:55:09;;;;;;;2.90;2.17;;;1.80;98.00;;;;;;5054211;28;20468;-67
2023/01/29 00:57:37;;;;;;;2.93;2.17;;;1.80;98.00;;;;;;5054230;28;20795;-67
2023/01/29 01:00:07;;;;;;;3.17;2.13;;;1.80;98.00;;;;;;5054255;28;20861;-67
2023/01/29 01:05:19;;;;;;;2.70;2.50;;;2.10;98.00;;;;;;5054391;28;20460;-67
2023/01/29 01:07:46;;;;;;;5.07;3.17;;;2.00;98.00;;;;;;5053944;28;20464;-67
2023/01/29 01:10:21;;;;;;;3.83;2.00;;;2.00;98.00;;;;;;5054185;28;20456;-67
2023/01/29 01:12:50;;;;;;;2.60;2.10;;;2.10;98.00;;;;;;5053979;28;20536;-67
2023/01/29 01:15:18;;;;;;;5.57;2.57;;;2.10;98.00;;;;;;5054226;28;20481;-66
2023/01/29 01:17:47;;;;;;;15.80;2.40;;;2.30;98.00;;;;;;5054010;28;20549;-67
2023/01/29 01:20:15;;;;;;;2.83;2.00;;;2.10;98.00;;;;;;5053824;28;20460;-67
2023/01/29 01:22:42;;;;;;;5.13;3.03;;;2.20;98.00;;;;;;5053881;28;20461;-67
2023/01/29 01:25:10;;;;;;;4.23;2.27;;;2.40;98.00;;;;;;5052493;28;20526;-67
2023/01/29 01:27:40;;;;;;;4.50;2.60;;;2.40;98.00;;;;;;5053925;28;20829;-67
2023/01/29 01:30:14;;;;;;;3.13;2.43;;;2.40;98.00;;;;;;5053381;28;20454;-67
2023/01/29 01:32:42;;;;;;;5.33;2.57;;;2.40;98.00;;;;;;5053599;28;20499;-67
2023/01/29 01:35:10;;;;;;;5.07;2.43;;;2.30;98.00;;;;;;5053212;28;20458;-67
2023/01/29 01:37:39;;;;;;;3.63;2.47;;;2.10;98.00;;;;;;5053411;28;20462;-66
2023/01/29 01:40:11;;;;;;;5.27;2.60;;;2.20;98.00;;;;;;5053313;28;20968;-66
2023/01/29 01:42:40;;;;;;;1.73;1.57;;;2.30;98.00;;;;;;5053382;28;20528;-67
2023/01/29 01:45:17;;;;;;;5.67;2.90;;;2.40;98.00;;;;;;5053076;28;20975;-67
2023/01/29 01:47:49;;;;;;;15.97;2.67;;;2.40;98.00;;;;;;5053037;28;20465;-66
2023/01/29 01:50:20;;;;;;;2.10;1.77;;;2.50;98.00;;;;;;5053379;28;20491;-67
2023/01/29 01:52:52;;;;;;;4.70;3.23;;;2.60;98.00;;;;;;5053084;28;20460;-66
2023/01/29 01:55:23;;;;;;;2.30;1.97;;;2.60;98.00;;;;;;5053304;28;20464;-67
2023/01/29 01:57:55;;;;;;;6.00;3.07;;;2.70;98.00;;;;;;5051852;28;21065;-67
2023/01/29 02:00:26;;;;;;;3.23;1.93;;;2.50;98.00;;;;;;5053258;28;20805;-67
2023/01/29 02:11:18;;;;;;;2.93;2.23;;;1.90;98.00;;;;;;5052478;28;20441;-67
2023/01/29 02:13:52;;;;;;;1.93;1.90;;;2.00;98.00;;;;;;5052919;28;20849;-67
2023/01/29 02:16:20;;;;;;;3.10;2.30;;;2.00;98.00;;;;;;5052839;28;20977;-67
2023/01/29 02:18:47;;;;;;;2.40;2.23;;;1.90;98.00;;;;;;5052783;28;20457;-67
2023/01/29 02:21:44;;;;;;;3.90;2.20;;;1.90;98.00;;;;;;5052661;28;20466;-67
2023/01/29 02:24:53;;;;;;;1.63;1.63;;;2.00;98.00;;;;;;5052989;28;20485;-67
2023/01/29 02:27:24;;;;;;;6.20;3.17;;;2.20;98.00;;;;;;5042164;28;21184;-67
2023/01/29 02:30:02;;;;;;;2.47;2.27;;;2.20;98.00;;;;;;5052472;28;20557;-67
2023/01/29 02:32:34;;;;;;;4.70;3.10;;;2.00;98.00;;;;;;5052295;28;20457;-67
2023/01/29 02:35:26;;;;;;;3.00;2.47;;;1.90;98.00;;;;;;5052136;28;20511;-67
2023/01/29 02:38:02;;;;;;;3.30;2.30;;;1.80;98.00;;;;;;5052124;28;20975;-67
2023/01/29 02:40:35;;;;;;;2.30;2.00;;;1.90;98.00;;;;;;5051693;28;20468;-69
2023/01/29 02:43:14;;;;;;;2.70;1.93;;;2.00;98.00;;;;;;5051933;28;20532;-67
2023/01/29 02:45:49;;;;;;;4.77;2.00;;;2.00;98.00;;;;;;5052195;28;20486;-67
2023/01/29 02:48:22;;;;;;;2.07;1.70;;;2.10;98.00;;;;;;5051955;28;20465;-67
2023/01/29 02:50:56;;;;;;;2.87;2.13;;;2.10;98.00;;;;;;5052032;28;20461;-67
2023/01/29 02:53:32;;;;;;;2.67;2.27;;;2.00;98.00;;;;;;5052099;28;20540;-67
2023/01/29 02:56:07;;;;;;;2.17;1.70;;;1.80;98.00;;;;;;5051606;28;20962;-67
2023/01/29 02:58:39;;;;;;;1.87;1.77;;;1.80;98.00;;;;;;5052185;28;20522;-67
2023/01/29 03:01:15;;;;;;;3.70;2.00;;;1.70;98.00;;;;;;5051965;28;20462;-68
2023/01/29 03:03:45;;;;;;;5.03;2.57;;;1.60;98.00;;;;;;5052089;28;20477;-67
2023/01/29 03:06:21;;;;;;;3.33;2.40;;;1.60;98.00;;;;;;5051991;28;20453;-67
2023/01/29 03:08:54;;;;;;;5.00;2.90;;;1.60;98.00;;;;;;5052044;28;20463;-67
2023/01/29 03:11:21;;;;;;;2.13;1.97;;;1.50;98.00;;;;;;5051938;28;20462;-66
2023/01/29 03:13:53;;;;;;;4.77;2.53;;;1.50;98.00;;;;;;5051337;28;20500;-67
2023/01/29 03:16:26;;;;;;;1.60;1.47;;;1.60;98.00;;;;;;5052137;28;20492;-67
2023/01/29 03:18:58;;;;;;;6.60;2.20;;;1.80;98.00;;;;;;5051954;28;20457;-67
2023/01/29 03:32:42;;;;;;;5.97;2.87;;;1.70;98.00;;;;;;5051638;28;20447;-67
2023/01/29 03:35:12;;;;;;;4.90;2.70;;;1.60;98.00;;;;;;5051502;28;20454;-67
2023/01/29 03:37:44;;;;;;;8.60;2.30;;;1.60;98.00;;;;;;5051579;28;20468;-67
2023/01/29 03:40:12;;;;;;;2.73;2.00;;;1.60;98.00;;;;;;5051489;28;20462;-67
2023/01/29 03:42:55;;;;;;;3.17;1.97;;;1.60;98.00;;;;;;5050712;28;20456;-67
2023/01/29 03:45:28;;;;;;;4.17;2.50;;;1.70;98.00;;;;;;5051448;28;20485;-67
2023/01/29 03:48:05;;;;;;;2.60;1.97;;;1.70;98.00;;;;;;5051235;28;20466;-67
2023/01/29 03:50:41;;;;;;;1.40;1.30;;;1.80;98.00;;;;;;5051484;28;20465;-67
2023/01/29 03:53:21;;;;;;;3.37;2.07;;;2.10;98.00;;;;;;5051451;28;20546;-67
2023/01/29 03:55:57;;;;;;;2.23;1.50;;;2.30;98.00;;;;;;5051483;28;20461;-67
2023/01/29 03:58:30;;;;;;;2.47;1.63;;;2.40;98.00;;;;;;5051511;28;20488;-67
2023/01/29 04:01:01;;;;;;;2.53;2.33;;;2.50;98.00;;;;;;5050362;28;20458;-67
2023/01/29 04:03:35;;;;;;;3.27;2.53;;;2.40;98.00;;;;;;5051483;28;20457;-67
2023/01/29 04:06:09;;;;;;;4.70;2.60;;;2.40;98.00;;;;;;5050398;28;20480;-67
2023/01/29 04:08:45;;;;;;;2.70;2.00;;;2.20;98.00;;;;;;5050402;28;20970;-66
2023/01/29 04:11:16;;;;;;;5.17;2.90;;;2.10;98.00;;;;;;5051045;28;20833;-67
2023/01/29 04:13:45;;;;;;;4.30;2.23;;;2.10;98.00;;;;;;5051504;28;20453;-67
2023/01/29 04:16:17;;;;;;;5.43;1.97;;;2.10;98.00;;;;;;5050476;28;20457;-67
2023/01/29 04:18:46;;;;;;;7.73;2.50;;;2.00;98.00;;;;;;5051476;28;20469;-67
2023/01/29 04:21:14;;;;;;;2.80;2.40;;;2.00;98.00;;;;;;5051690;28;20462;-67
2023/01/29 04:23:42;;;;;;;2.57;2.03;;;2.00;98.00;;;;;;5050837;28;20458;-67
2023/01/29 04:26:24;;;;;;;8.90;2.93;;;2.00;98.00;;;;;;5053672;28;20460;-67
2023/01/29 04:29:06;;;;;;;3.43;2.73;;;2.20;98.00;;;;;;5053644;28;20464;-67
2023/01/29 04:31:41;;;;;;;7.80;2.90;;;2.20;98.00;;;;;;5054697;28;20811;-67
2023/01/29 04:34:19;;;;;;;6.10;2.80;;;2.30;98.00;;;;;;5054363;28;20969;-66
2023/01/29 04:36:58;;;;;;;6.23;2.57;;;2.30;98.00;;;;;;5054481;28;20461;-67
2023/01/29 04:39:30;;;;;;;4.13;2.70;;;2.30;98.00;;;;;;5054393;28;20450;-66
2023/01/29 04:42:06;;;;;;;2.10;1.97;;;2.30;98.00;;;;;;5054401;28;20897;-67
2023/01/29 04:44:40;;;;;;;2.93;2.10;;;2.20;98.00;;;;;;5054290;28;20496;-67
2023/01/29 04:47:17;;;;;;;5.93;3.03;;;2.10;98.00;;;;;;5054064;28;20475;-67
2023/01/29 04:49:50;;;;;;;4.20;2.67;;;2.00;98.00;;;;;;5054342;28;20457;-67
2023/01/29 04:52:25;;;;;;;3.90;2.20;;;1.90;98.00;;;;;;5054170;28;20968;-67
2023/01/29 04:55:02;;;;;;;5.67;2.37;;;1.90;98.00;;;;;;5054301;28;20453;-66
2023/01/29 04:57:36;;;;;;;2.77;1.60;;;1.80;98.00;;;;;;5054159;28;20975;-67
2023/01/29 05:00:11;;;;;;;3.00;2.20;;;1.70;98.00;;;;;;5054213;28;20450;-67
2023/01/29 05:02:40;;;;;;;4.13;2.50;;;1.70;98.00;;;;;;5054268;28;20489;-67
2023/01/29 05:05:13;;;;;;;5.33;2.40;;;1.70;98.00;;;;;;5054074;28;20489;-66
2023/01/29 05:07:42;;;;;;;2.70;2.10;;;1.70;98.00;;;;;;5054153;28;20931;-67
2023/01/29 05:10:12;;;;;;;1.90;1.63;;;1.70;98.00;;;;;;5054217;28;20462;-67
2023/01/29 05:12:40;;;;;;;2.93;2.20;;;1.80;98.00;;;;;;5054090;28;20511;-67
2023/01/29 05:15:12;;;;;;;2.53;1.93;;;1.70;98.00;;;;;;5247180;22;20500;-67
2023/01/29 05:17:39;;;;;;;3.13;2.30;;;1.80;98.00;;;;;;5053616;28;20826;-67
2023/01/29 05:20:09;;;;;;;2.10;1.90;;;1.90;98.00;;;;;;5054089;28;20461;-67
2023/01/29 05:22:41;;;;;;;5.43;2.47;;;1.80;98.00;;;;;;5053908;28;20803;-66
2023/01/29 05:25:21;;;;;;;5.40;2.47;;;1.80;98.00;;;;;;5053778;28;20485;-67
2023/01/29 05:28:04;;;;;;;2.07;1.90;;;1.70;98.00;;;;;;5053412;28;20505;-67
2023/01/29 05:30:34;;;;;;;1.53;1.50;;;1.70;98.00;;;;;;5053684;28;20449;-67
2023/01/29 05:33:01;;;;;;;2.87;2.10;;;1.70;98.00;;;;;;5053405;28;20466;-67
2023/01/29 05:35:28;;;;;;;5.10;2.80;;;1.70;98.00;;;;;;5053570;28;20536;-67
2023/01/29 05:37:57;;;;;;;6.00;2.40;;;1.70;98.00;;;;;;5052679;28;20465;-67
2023/01/29 05:40:24;;;;;;;3.93;2.50;;;1.80;98.00;;;;;;5053317;28;20465;-67
2023/01/29 05:42:52;;;;;;;5.27;2.20;;;1.80;98.00;;;;;;5053252;28;20454;-67
2023/01/29 05:45:19;;;;;;;2.93;2.10;;;1.90;98.00;;;;;;5053303;28;20883;-67
2023/01/29 05:47:46;;;;;;;6.33;3.53;;;1.90;98.00;;;;;;5053227;28;20458;-67
2023/01/29 05:50:15;;;;;;;3.13;2.50;;;1.90;98.00;;;;;;5053595;28;20458;-67
2023/01/29 05:52:42;;;;;;;5.17;2.50;;;1.80;98.00;;;;;;5053179;28;20456;-67
2023/01/29 05:55:11;;;;;;;5.73;2.63;;;1.90;98.00;;;;;;5053153;28;20465;-67
2023/01/29 05:57:40;;;;;;;3.13;2.03;;;1.70;98.00;;;;;;5053036;28;20466;-67
2023/01/29 06:00:08;;;;;;;4.13;2.80;;;1.70;98.00;;;;;;5053066;28;20457;-67
2023/01/29 06:02:35;;;;;;;3.33;2.40;;;1.70;98.00;;;;;;5053058;28;20542;-66
2023/01/29 06:05:03;;;;;;;2.70;2.13;;;1.70;98.00;;;;;;5052970;28;20488;-67
2023/01/29 06:07:30;;;;;;;2.90;2.17;;;1.60;98.00;;;;;;5051881;28;20458;-67
2023/01/29 06:09:58;;;;;;;2.47;2.00;;;1.70;98.00;;;;;;5052964;28;20461;-67
2023/01/29 06:12:28;;;;;;;2.37;1.70;;;1.50;98.00;;;;;;5053046;28;20458;-67
2023/01/29 06:14:55;;;;;;;2.37;1.83;;;1.50;98.00;;;;;;5052764;28;20466;-67
2023/01/29 06:17:22;;;;;;;2.70;2.47;;;1.70;98.00;;;;;;5052933;28;20456;-67
2023/01/29 06:19:49;;;;;;;3.40;2.00;;;1.60;98.00;;;;;;5051699;28;20470;-68
2023/01/29 06:22:16;;;;;;;2.93;2.30;;;1.60;98.00;;;;;;5052689;28;20450;-67
2023/01/29 06:24:44;;;;;;;4.17;2.67;;;1.60;98.00;;;;;;5051437;28;20482;-67
2023/01/29 06:27:12;;;;;;;3.10;2.53;;;1.80;98.00;;;;;;5052330;28;20453;-67
2023/01/29 06:29:40;;;;;;;2.53;2.33;;;1.90;98.00;;;;;;5052506;28;20457;-66
2023/01/29 06:32:07;;;;;;;6.20;2.40;;;1.90;98.00;;;;;;5052260;28;20459;-67
2023/01/29 06:34:34;;;;;;;2.00;1.90;;;1.80;98.00;;;;;;5052440;28;20457;-67
2023/01/29 06:37:01;;;;;;;1.87;1.73;;;1.80;98.00;;;;;;5052230;28;20829;-67
2023/01/29 06:39:28;;;;;;;2.60;2.33;;;1.80;98.00;;;;;;5052309;28;20464;-67
2023/01/29 06:41:55;;;;;;;4.33;2.87;;;2.00;98.00;;;;;;5052087;28;20458;-67
2023/01/29 06:44:22;;;;;;;2.50;2.30;;;2.10;98.00;;;;;;5052080;28;20924;-67
2023/01/29 06:46:51;;;;;;;3.30;2.27;;;1.90;98.00;;;;;;5051467;28;20457;-67
2023/01/29 06:49:18;;;;;;;5.73;2.83;;;1.90;98.00;;;;;;5052026;28;20490;-67
2023/01/29 06:51:45;;;;;;;4.70;2.63;;;1.90;98.00;;;;;;5051259;28;20476;-67
2023/01/29 06:54:12;;;;;;;3.77;2.20;;;2.00;98.00;;;;;;5051372;28;20484;-66
2023/01/29 06:56:40;;;;;;;4.30;2.50;;;2.10;98.00;;;;;;5051684;28;20461;-67
2023/01/29 06:59:07;;;;;;;5.63;2.17;;;2.10;98.00;;;;;;5052179;28;20465;-67
2023/01/29 07:01:34;;;;;;;3.20;2.47;;;1.90;98.00;;;;;;5051990;28;20511;-63
2023/01/29 07:04:04;;;;;;;7.30;3.03;;;1.80;98.00;;;;;;5051874;28;20485;-63
2023/01/29 07:06:31;;;;;;;3.20;2.57;;;1.80;98.00;;;;;;5051936;28;20549;-63
2023/01/29 07:08:59;;;;;;;5.27;2.60;;;1.60;98.00;;;;;;5051994;28;20445;-62
2023/01/29 07:11:26;;;;;;;3.03;2.03;;;1.60;98.00;;;;;;5050946;28;20453;-63
2023/01/29 07:13:53;;;;;;;5.10;3.07;;;1.70;98.00;;;;;;5051941;28;20465;-63
2023/01/29 07:16:21;;;;;;;5.80;3.13;;;1.80;98.00;;;;;;5051961;28;20515;-63
2023/01/29 07:18:48;;;;;;;3.20;3.00;;;1.70;98.00;;;;;;5051858;28;20472;-63
2023/01/29 07:21:16;;;;;;;6.83;3.00;;;1.60;98.00;;;;;;5051061;28;20544;-63
2023/01/29 07:23:43;;;;;;;4.47;2.40;;;1.50;98.00;;;;;;5052030;28;20457;-63
2023/01/29 07:26:11;;;;;;;3.00;2.10;;;1.50;98.00;;;;;;5051621;28;20989;-63
2023/01/29 07:28:38;;;;;;;2.83;1.87;;;1.60;98.00;;;;;;5051828;28;20456;-63
2023/01/29 07:31:06;;;;;;;3.90;2.40;;;1.50;98.00;;;;;;5051554;28;20453;-63
2023/01/29 07:33:34;;;;;;;2.23;2.07;;;1.60;98.00;;;;;;5050049;28;20454;-63
2023/01/29 07:36:01;;;;;;;4.40;2.20;;;1.70;98.00;;;;;;5051722;28;20498;-63
2023/01/29 07:38:30;;;;;;;5.60;2.90;;;1.70;98.00;;;;;;5051504;28;20467;-62
2023/01/29 07:40:57;;;;;;;3.70;2.03;;;1.80;98.00;;;;;;5051621;28;20920;-63
2023/01/29 07:43:24;;;;;;;3.27;3.00;;;1.90;98.00;;;;;;5051381;28;20483;-63
2023/01/29 07:45:51;;;;;;;3.83;2.27;;;2.00;98.00;;;;;;5051174;28;20547;-63
2023/01/29 07:48:19;;;;;;;1.73;1.70;;;2.10;98.00;;;;;;5051650;28;20484;-63
2023/01/29 07:50:55;;;;;;;2.67;2.27;;;2.20;98.00;;;;;;5051482;28;20461;-62
2023/01/29 07:53:22;;;;;;;4.07;2.37;;;2.20;98.00;;;;;;5051440;28;21015;-63
2023/01/29 07:55:51;;;;;;;3.73;2.37;;;2.10;98.00;;;;;;5051435;28;20469;-63
2023/01/29 07:58:18;;;;;;;2.70;2.43;;;2.00;98.00;;;;;;5051265;28;20940;-63
2023/01/29 08:00:45;;;;;;;4.23;3.07;;;2.00;98.00;;;;;;5052168;28;20470;-63
2023/01/29 08:03:14;;;;;;;3.50;2.20;;;1.90;98.00;;;;;;5055356;28;20458;-63
2023/01/29 08:05:42;;;;;;;2.70;1.70;;;2.00;98.00;;;;;;5055375;28;20485;-62
2023/01/29 08:08:09;;;;;;;3.17;2.10;;;2.10;98.00;;;;;;5055316;28;20453;-62
2023/01/29 08:10:37;;;;;;;3.33;2.03;;;2.10;98.00;;;;;;5055285;28;20820;-62
2023/01/29 08:13:06;;;;;;;3.63;2.13;;;2.20;98.00;;;;;;5055230;28;20826;-63
2023/01/29 08:15:34;;;;;;;4.30;2.60;;;2.10;98.00;;;;;;5055304;28;20492;-62
2023/01/29 08:18:02;;;;;;;4.50;2.63;;;1.90;98.00;;;;;;5055260;28;20559;-62
2023/01/29 08:20:29;;;;;;;2.03;1.80;;;2.00;98.00;;;;;;5055284;28;20464;-62
2023/01/29 08:23:01;;;;;;;4.87;2.57;;;2.00;98.00;;;;;;5054927;28;20492;-62
2023/01/29 08:25:28;;;;;;;4.60;2.10;;;1.90;98.00;;;;;;5054624;28;20480;-62
2023/01/29 08:27:57;;;;;;;5.47;2.97;;;1.70;98.00;;;;;;5054785;28;20463;-62
2023/01/29 08:30:26;;;;;;;6.67;2.50;;;1.70;98.00;;;;;;5054834;28;20547;-62
2023/01/29 08:32:53;;;;;;;6.83;3.47;;;1.70;98.00;;;;;;5054545;28;20464;-62
2023/01/29 08:35:20;;;;;;;3.13;2.23;;;1.60;98.00;;;;;;5054759;28;20523;-62
2023/01/29 08:37:54;;;;;;;4.63;3.00;;;1.70;98.00;;;;;;5054384;28;20974;-62
2023/01/29 08:40:21;;;;;;;5.57;2.87;;;1.90;98.00;;;;;;5054049;28;20548;-62
2023/01/29 08:42:51;;;;;;;5.80;2.70;;;2.00;98.00;;;;;;5053908;28;20461;-62
2023/01/29 08:45:18;;;;;;;3.77;2.73;;;2.00;98.00;;;;;;5053804;28;20515;-62
2023/01/29 08:47:47;;;;;;;4.10;2.30;;;2.20;98.00;;;;;;5053649;28;20453;-62
2023/01/29 08:50:15;;;;;;;2.83;2.50;;;2.30;98.00;;;;;;5053597;28;20541;-62
2023/01/29 08:52:43;;;;;;;5.20;2.13;;;2.30;98.00;;;;;;5052289;28;20453;-62
2023/01/29 08:55:10;;;;;;;6.60;3.30;;;2.20;98.00;;;;;;5053536;28;20461;-62
2023/01/29 08:57:38;;;;;;;2.43;2.17;;;2.10;98.00;;;;;;5052527;28;20449;-62
2023/01/29 09:00:08;;;;;;;5.00;2.87;;;2.00;98.00;;;;;;5053348;28;21042;-62
2023/01/29 09:02:35;;;;;;;8.43;3.33;;;2.00;98.00;;;;;;5053368;28;21035;-62
2023/01/29 09:05:06;;;;;;;5.33;3.60;;;1.70;98.00;;;;;;5052123;28;20523;-62
2023/01/29 09:07:33;;;;;;;5.20;2.33;;;1.80;98.00;;;;;;5053426;28;20802;-62
2023/01/29 09:10:00;;;;;;;3.23;2.13;;;1.70;98.00;;;;;;5053485;28;20462;-62
2023/01/29 09:12:30;;;;;;;4.33;2.77;;;1.70;98.00;;;;;;5052127;28;20457;-62
2023/01/29 09:14:57;;;;;;;3.90;2.13;;;1.80;98.00;;;;;;5053166;28;20927;-62
2023/01/29 09:17:24;;;;;;;4.70;2.10;;;2.00;98.00;;;;;;5053286;28;20480;-62
2023/01/29 09:19:52;;;;;;;3.47;2.63;;;1.90;98.00;;;;;;5053308;28;20526;-63
2023/01/29 09:22:20;;;;;;;3.07;2.27;;;1.90;98.00;;;;;;5053315;28;20536;-62
2023/01/29 09:24:48;;;;;;;4.93;2.70;;;1.80;98.00;;;;;;5052946;28;20449;-62
2023/01/29 09:27:16;;;;;;;5.10;3.37;;;2.00;98.00;;;;;;5054949;28;20553;-63
2023/01/29 09:29:43;;;;;;;3.37;3.13;;;1.90;98.00;;;;;;5072280;28;20463;-62
2023/01/29 09:32:10;;;;;;;6.10;3.13;;;1.90;98.00;;;;;;5072456;28;20472;-62
2023/01/29 09:34:37;;;;;;;2.90;2.33;;;1.90;98.00;;;;;;5072443;28;20449;-63
2023/01/29 09:37:05;;;;;;;4.20;2.60;;;2.10;98.00;;;;;;5071331;28;20460;-62
2023/01/29 09:39:33;;;;;;;4.57;2.77;;;2.30;98.00;;;;;;5072634;28;20460;-63
2023/01/29 09:42:08;;;;;;;5.60;2.83;;;2.40;98.00;;;;;;5071156;28;20461;-62
2023/01/29 09:44:49;;;;;;;4.73;3.10;;;2.50;98.00;;;;;;5072530;28;20799;-62
2023/01/29 09:47:19;;;;;;;4.57;2.70;;;2.50;98.00;;;;;;5072413;28;20487;-62
2023/01/29 09:49:50;;;;;;;6.23;3.13;;;2.60;98.00;;;;;;5072310;28;20453;-62
2023/01/29 09:52:21;;;;;;;5.77;2.77;;;2.50;98.00;;;;;;5072121;28;20453;-62
2023/01/29 09:54:57;;;;;;;3.27;2.27;;;2.30;98.00;;;;;;5064287;28;20454;-62
2023/01/29 09:57:29;;;;;;;3.50;2.10;;;2.50;98.00;;;;;;5052301;28;20485;-62
2023/01/29 09:59:57;;;;;;;3.03;2.40;;;2.60;98.00;;;;;;5051005;28;20450;-62
2023/01/29 10:02:49;;;;;;;4.17;2.40;;;2.60;98.00;;;;;;5051697;28;20470;-63
2023/01/29 10:05:32;;;;;;;4.57;2.37;;;2.70;98.00;;;;;;5052151;28;20450;-62
2023/01/29 10:08:28;;;;;;;6.73;2.37;;;2.90;98.00;;;;;;5052029;28;20959;-63
2023/01/29 10:11:06;;;;;;;5.07;2.87;;;2.80;98.00;;;;;;5051894;28;20472;-62
2023/01/29 10:13:47;;;;;;;3.10;2.07;;;2.90;98.00;;;;;;5050619;28;20499;-62
2023/01/29 10:16:31;;;;;;;4.67;2.80;;;3.00;98.00;;;;;;5051845;28;20484;-63
2023/01/29 10:19:13;;;;;;;2.60;1.83;;;3.20;98.00;;;;;;5051797;28;20469;-62
2023/01/29 10:21:59;;;;;;;2.70;2.40;;;3.30;98.00;;;;;;5051941;28;20462;-62
2023/01/29 10:24:36;;;;;;;3.00;2.40;;;3.30;98.00;;;;;;5048390;28;20457;-63
2023/01/29 10:27:14;;;;;;;2.10;1.97;;;3.30;98.00;;;;;;5049623;28;20489;-63
2023/01/29 10:29:43;;;;;;;4.30;2.60;;;3.40;98.00;;;;;;5051759;28;20512;-63
2023/01/29 10:32:16;;;;;;;4.70;2.67;;;3.10;98.00;;;;;;5051543;28;20967;-63
2023/01/29 10:34:49;;;;;;;4.00;2.37;;;2.90;98.00;;;;;;5051590;28;20976;-62
2023/01/29 10:37:20;;;;;;;3.30;2.70;;;3.00;98.00;;;;;;5051364;28;20959;-62
2023/01/29 10:39:47;;;;;;;4.40;2.70;;;3.20;98.00;;;;;;5050212;28;20484;-62
2023/01/29 10:42:26;;;;;;;2.20;1.63;;;3.30;98.00;;;;;;5051219;28;20461;-62
2023/01/29 10:45:04;;;;;;;3.67;2.20;;;3.40;98.00;;;;;;5051095;28;20461;-63
2023/01/29 10:48:03;;;;;;;2.73;2.30;;;3.50;98.00;;;;;;5051239;28;20514;-62
2023/01/29 10:50:47;;;;;;;3.87;2.07;;;3.20;98.00;;;;;;5066139;28;20531;-67
2023/01/29 10:53:31;;;;;;;5.93;2.60;;;3.90;98.00;;;;;;5071043;28;21023;-66
2023/01/29 10:56:06;;;;;;;3.60;2.37;;;5.60;98.00;;;;;;5071184;28;20461;-62
2023/01/29 10:58:41;;;;;;;3.83;2.57;;;5.40;98.00;;;;;;5071096;28;20470;-62
2023/01/29 11:01:09;;;;;;;3.80;2.87;;;5.30;98.00;;;;;;5071150;28;20909;-62
2023/01/29 11:03:36;;;;;;;4.43;2.60;;;5.20;98.00;;;;;;5070898;28;20540;-62
2023/01/29 11:06:17;;;;;;;8.20;3.00;;;5.00;98.00;;;;;;5070929;28;20483;-63
2023/01/29 11:08:54;;;;;;;5.90;3.50;;;4.70;98.00;;;;;;5071050;28;20568;-62
2023/01/29 11:11:25;;;;;;;7.20;2.43;;;4.60;98.00;;;;;;5071267;28;20476;-63
2023/01/29 11:14:00;;;;;;;5.73;2.80;;;4.40;98.00;;;;;;5070905;28;20461;-62
2023/01/29 11:16:32;;;;;;;5.17;2.67;;;4.00;98.00;;;;;;5070959;28;20453;-62
2023/01/29 11:19:01;;;;;;;3.77;2.73;;;3.70;98.00;;;;;;5071084;28;20455;-62
2023/01/29 11:21:29;;;;;;;4.77;3.00;;;3.40;98.00;;;;;;5071186;28;20512;-63
2023/01/29 11:24:11;;;;;;;2.10;1.90;;;3.50;98.00;;;;;;5070887;28;20457;-62
2023/01/29 11:26:41;;;;;;;4.10;2.40;;;3.40;98.00;;;;;;5070923;28;20589;-63
2023/01/29 11:29:41;;;;;;;2.90;2.60;;;3.30;98.00;;;;;;5070709;28;20461;-62
2023/01/29 11:32:13;;;;;;;7.37;2.83;;;3.30;98.00;;;;;;5070815;28;20457;-62
2023/01/29 11:34:58;;;;;;;7.30;4.53;;;3.50;98.00;;;;;;5070858;28;20464;-63
2023/01/29 11:37:32;;;;;;;3.33;2.30;;;3.70;98.00;;;;;;5074883;28;20466;-63
2023/01/29 11:40:00;;;;;;;3.93;2.77;;;3.70;98.00;;;;;;5074832;28;20448;-63
2023/01/29 11:42:31;;;;;;;3.33;2.50;;;3.50;98.00;;;;;;5074905;28;20465;-63
2023/01/29 11:45:00;;;;;;;3.93;2.10;;;3.40;98.00;;;;;;5074467;28;20462;-62
2023/01/29 11:47:29;;;;;;;3.20;2.20;;;3.40;98.00;;;;;;5074593;28;20537;-62
2023/01/29 11:49:58;;;;;;;6.10;2.87;;;3.40;98.00;;;;;;5074958;28;20814;-62
2023/01/29 11:52:34;;;;;;;7.73;4.13;;;3.30;98.00;;;;;;5073459;28;20460;-62
2023/01/29 11:55:05;;;;;;;3.33;2.40;;;3.30;98.00;;;;;;5074506;28;20525;-63
2023/01/29 11:57:35;;;;;;;3.70;2.83;;;3.20;98.00;;;;;;5075586;28;20883;-63
2023/01/29 12:00:06;;;;;;;4.60;3.10;;;3.20;98.00;;;;;;5074705;28;20469;-62
2023/01/29 12:02:37;;;;;;;4.00;2.77;;;3.40;98.00;;;;;;5075640;28;20460;-62
2023/01/29 12:05:14;;;;;;;4.97;3.13;;;3.50;98.00;;;;;;5074655;28;20957;-63
2023/01/29 12:07:44;;;;;;;3.73;2.70;;;3.60;98.00;;;;;;5074347;28;20876;-63
2023/01/29 12:10:30;;;;;;;4.77;2.70;;;3.60;98.00;;;;;;5073237;28;20460;-62
2023/01/29 12:13:04;;;;;;;4.00;2.40;;;3.60;98.00;;;;;;5074547;28;20514;-63
2023/01/29 12:15:33;;;;;;;3.30;2.50;;;3.50;98.00;;;;;;5074757;28;20464;-62
2023/01/29 12:18:13;;;;;;;3.50;2.30;;;3.50;98.00;;;;;;5074796;28;20816;-62
2023/01/29 12:20:45;;;;;;;4.27;3.27;;;3.70;98.00;;;;;;5074470;28;20646;-62
2023/01/29 12:23:23;;;;;;;4.20;3.23;;;3.70;98.00;;;;;;5074592;28;20461;-62
2023/01/29 12:25:58;;;;;;;5.47;3.13;;;3.80;98.00;;;;;;5074481;28;20935;-62
2023/01/29 12:28:44;;;;;;;6.23;2.70;;;3.90;98.00;;;;;;5073737;28;20484;-62
2023/01/29 12:31:35;;;;;;;6.63;3.07;;;4.00;98.00;;;;;;5073712;28;20478;-62
2023/01/29 12:34:10;;;;;;;4.80;3.10;;;4.00;98.00;;;;;;5073759;28;20863;-62
2023/01/29 12:36:43;;;;;;;6.87;2.93;;;4.20;98.00;;;;;;5073982;28;20973;-62
2023/01/29 12:39:15;;;;;;;2.67;2.20;;;4.60;98.00;;;;;;5073605;28;20856;-62
2023/01/29 12:41:48;;;;;;;3.93;2.77;;;4.80;98.00;;;;;;5073808;28;20455;-62
2023/01/29 12:44:19;;;;;;;5.40;3.40;;;4.50;98.00;;;;;;5073443;28;20472;-62
2023/01/29 12:46:54;;;;;;;4.30;2.83;;;4.50;98.00;;;;;;5073432;28;20485;-62
2023/01/29 12:49:26;;;;;;;6.60;2.50;;;4.60;98.00;;;;;;5073260;28;20457;-63
2023/01/29 12:51:59;;;;;;;6.20;3.47;;;4.50;98.00;;;;;;5073531;28;20962;-62
2023/01/29 12:54:37;;;;;;;4.23;2.87;;;4.50;98.00;;;;;;5073644;28;20540;-62
2023/01/29 12:57:10;;;;;;;4.93;2.70;;;4.40;98.00;;;;;;5071366;28;20469;-63
2023/01/29 12:59:43;;;;;;;3.87;2.63;;;4.60;98.00;;;;;;5073385;28;20467;-63
2023/01/29 13:02:32;;;;;;;3.40;2.67;;;4.30;98.00;;;;;;5073521;28;20552;-62
2023/01/29 13:05:05;;;;;;;8.93;3.10;;;4.40;98.00;;;;;;5073300;28;20458;-63
2023/01/29 13:07:38;;;;;;;6.50;2.80;;;4.30;98.00;;;;;;5073346;28;20490;-63
2023/01/29 13:10:12;;;;;;;3.23;2.63;;;4.50;98.00;;;;;;5073141;28;20865;-63
2023/01/29 13:12:45;;;;;;;3.57;2.53;;;4.70;98.00;;;;;;5073265;28;20552;-63
2023/01/29 13:15:22;;;;;;;3.70;2.87;;;4.80;98.00;;;;;;5073010;28;20474;-63
2023/01/29 13:17:57;;;;;;;2.80;2.27;;;4.80;98.00;;;;;;5073271;28;20944;-63
2023/01/29 13:20:29;;;;;;;6.43;3.23;;;4.70;98.00;;;;;;5073430;28;20458;-63
2023/01/29 13:23:15;;;;;;;4.13;2.33;;;4.80;98.00;;;;;;5073076;28;20520;-61
2023/01/29 13:25:44;;;;;;;3.70;2.03;;;4.70;98.00;;;;;;5073036;28;20469;-65
2023/01/29 13:28:17;;;;;;;3.97;2.80;;;4.70;98.00;;;;;;5072823;28;20477;-63
2023/01/29 13:30:45;;;;;;;5.13;2.53;;;4.50;98.00;;;;;;5072917;28;20554;-63
2023/01/29 13:33:23;;;;;;;5.50;2.73;;;4.40;98.00;;;;;;5072769;28;20465;-63
2023/01/29 13:35:59;;;;;;;2.70;2.20;;;4.40;98.00;;;;;;5072796;28;20460;-63
2023/01/29 13:38:31;;;;;;;7.27;3.93;;;4.40;98.00;;;;;;5072946;28;20951;-63
2023/01/29 13:41:02;;;;;;;6.57;2.67;;;4.60;98.00;;;;;;5072777;28;20534;-63
2023/01/29 13:43:35;;;;;;;4.20;2.97;;;4.60;98.00;;;;;;5072362;28;21028;-63
2023/01/29 13:46:09;;;;;;;6.10;2.77;;;4.70;98.00;;;;;;5072498;28;20469;-63
2023/01/29 13:48:42;;;;;;;5.30;2.17;;;4.50;98.00;;;;;;5072471;28;21009;-63
2023/01/29 13:51:15;;;;;;;4.63;2.77;;;4.50;98.00;;;;;;5071217;28;20458;-63